createdAt,value
2017-10-28T00:00:50.249Z,1020.33
2017-10-28T00:02:00.738Z,1020.27
2017-10-28T00:03:10.797Z,1020.22
2017-10-28T00:04:20.644Z,1020.15
2017-10-28T00:05:30.842Z,1020.2
2017-10-28T00:06:40.917Z,1020.27
2017-10-28T00:07:51.176Z,1020.21
2017-10-28T00:09:01.390Z,1020.21
2017-10-28T00:10:11.808Z,1020.19
2017-10-28T00:11:22.075Z,1020.2
2017-10-28T00:12:32.624Z,1020.14
2017-10-28T00:13:42.690Z,1020.09
2017-10-28T00:14:52.638Z,1020.05
2017-10-28T00:16:02.539Z,1020.06
2017-10-28T00:17:12.604Z,1020.09
2017-10-28T00:18:22.835Z,1019.97
2017-10-28T00:19:32.610Z,1019.96
2017-10-28T00:20:41.330Z,1020.02
2017-10-28T00:21:51.113Z,1020.04
2017-10-28T00:23:01.268Z,1020.01
2017-10-28T00:24:10.985Z,1020
2017-10-28T00:25:20.818Z,1020.02
2017-10-28T00:26:30.597Z,1020.02
2017-10-28T00:27:40.988Z,1020
2017-10-28T00:28:51.167Z,1020.03
2017-10-28T00:30:01.364Z,1019.93
2017-10-28T00:31:11.444Z,1019.96
2017-10-28T00:32:20.960Z,1019.96
2017-10-28T00:33:30.812Z,1019.95
2017-10-28T00:34:40.867Z,1019.88
2017-10-28T00:35:50.691Z,1019.9
2017-10-28T00:37:00.836Z,1019.87
2017-10-28T00:38:11.200Z,1019.82
2017-10-28T00:39:21.321Z,1019.81
2017-10-28T00:40:31.476Z,1019.75
2017-10-28T00:41:40.526Z,1019.91
2017-10-28T00:42:50.266Z,1019.77
2017-10-28T00:44:00.051Z,1019.81
2017-10-28T00:45:10.105Z,1019.81
2017-10-28T00:46:20.214Z,1019.79
2017-10-28T00:47:30.405Z,1019.78
2017-10-28T00:48:40.489Z,1019.68
2017-10-28T00:49:50.267Z,1019.75
2017-10-28T00:50:59.999Z,1019.69
2017-10-28T00:52:09.682Z,1019.67
2017-10-28T00:53:19.687Z,1019.59
2017-10-28T00:54:29.374Z,1019.6
2017-10-28T00:55:39.383Z,1019.54
2017-10-28T00:56:49.066Z,1019.6
2017-10-28T00:57:59.089Z,1019.54
2017-10-28T00:59:08.761Z,1019.52
2017-10-28T01:00:19.124Z,1019.48
2017-10-28T01:01:29.153Z,1019.47
2017-10-28T01:02:38.175Z,1019.4
2017-10-28T01:03:48.198Z,1019.38
2017-10-28T01:04:57.887Z,1019.38
2017-10-28T01:06:07.915Z,1019.35
2017-10-28T01:07:18.266Z,1019.36
2017-10-28T01:08:27.966Z,1019.37
2017-10-28T01:09:38.002Z,1019.34
2017-10-28T01:10:48.372Z,1019.36
2017-10-28T01:11:58.051Z,1019.39
2017-10-28T01:13:07.729Z,1019.35
2017-10-28T01:14:18.079Z,1019.3
2017-10-28T01:15:28.116Z,1019.32
2017-10-28T01:16:37.121Z,1019.3
2017-10-28T01:17:46.799Z,1019.27
2017-10-28T01:18:56.831Z,1019.23
2017-10-28T01:20:06.528Z,1019.24
2017-10-28T01:21:16.557Z,1019.18
2017-10-28T01:22:25.942Z,1019.14
2017-10-28T01:23:35.970Z,1019.1
2017-10-28T01:24:45.657Z,1019.09
2017-10-28T01:25:55.684Z,1019.09
2017-10-28T01:27:05.032Z,1019.03
2017-10-28T01:28:14.721Z,1018.97
2017-10-28T01:29:24.735Z,1018.97
2017-10-28T01:30:34.745Z,1019
2017-10-28T01:31:43.753Z,1018.99
2017-10-28T01:32:53.761Z,1018.98
2017-10-28T01:34:03.774Z,1019.13
2017-10-28T01:35:13.788Z,1019.1
2017-10-28T01:36:23.798Z,1019.03
2017-10-28T01:37:33.482Z,1019
2017-10-28T01:38:42.820Z,1019.03
2017-10-28T01:39:53.166Z,1018.97
2017-10-28T01:41:02.511Z,1018.96
2017-10-28T01:42:11.855Z,1018.91
2017-10-28T01:43:21.869Z,1018.87
2017-10-28T01:44:31.543Z,1018.87
2017-10-28T01:45:40.880Z,1018.81
2017-10-28T01:46:50.897Z,1018.63
2017-10-28T01:48:01.237Z,1018.59
2017-10-28T01:49:11.256Z,1018.59
2017-10-28T01:50:20.939Z,1018.52
2017-10-28T01:51:30.279Z,1018.48
2017-10-28T01:52:40.626Z,1018.49
2017-10-28T01:53:50.300Z,1018.5
2017-10-28T01:55:00.316Z,1018.41
2017-10-28T01:56:10.326Z,1018.38
2017-10-28T01:57:19.677Z,1018.35
2017-10-28T01:58:30.020Z,1018.32
2017-10-28T01:59:40.026Z,1018.25
2017-10-28T02:00:49.699Z,1018.23
2017-10-28T02:01:59.709Z,1018.11
2017-10-28T02:03:10.059Z,1018.12
2017-10-28T02:04:19.400Z,1018.11
2017-10-28T02:05:28.740Z,1018.12
2017-10-28T02:06:38.419Z,1018.08
2017-10-28T02:07:48.421Z,1018.01
2017-10-28T02:08:58.434Z,1018.02
2017-10-28T02:10:08.444Z,1017.97
2017-10-28T02:11:17.447Z,1017.93
2017-10-28T02:12:27.457Z,1017.94
2017-10-28T02:13:37.465Z,1017.96
2017-10-28T02:14:47.147Z,1017.91
2017-10-28T02:15:57.497Z,1017.94
2017-10-28T02:17:06.842Z,1017.92
2017-10-28T02:18:16.533Z,1017.86
2017-10-28T02:19:26.548Z,1017.88
2017-10-28T02:20:36.900Z,1017.87
2017-10-28T02:21:46.902Z,1017.84
2017-10-28T02:22:57.249Z,1017.83
2017-10-28T02:24:07.259Z,1017.78
2017-10-28T02:25:17.266Z,1017.83
2017-10-28T02:26:27.606Z,1017.78
2017-10-28T02:27:37.836Z,1017.77
2017-10-28T02:28:48.193Z,1017.87
2017-10-28T02:29:58.210Z,1017.81
2017-10-28T02:31:08.260Z,1017.78
2017-10-28T02:32:17.938Z,1017.69
2017-10-28T02:33:27.949Z,1017.7
2017-10-28T02:34:37.288Z,1017.73
2017-10-28T02:35:47.296Z,1017.7
2017-10-28T02:36:56.974Z,1017.66
2017-10-28T02:38:07.002Z,1017.73
2017-10-28T02:39:16.689Z,1017.66
2017-10-28T02:40:26.719Z,1017.59
2017-10-28T02:41:37.067Z,1017.61
2017-10-28T02:45:06.235Z,1017.4
2017-10-28T02:46:16.255Z,1017.51
2017-10-28T02:47:26.645Z,1017.44
2017-10-28T02:48:36.660Z,1017.49
2017-10-28T02:49:46.676Z,1017.46
2017-10-28T02:50:57.024Z,1017.44
2017-10-28T02:52:07.044Z,1017.35
2017-10-28T02:53:17.398Z,1017.35
2017-10-28T02:54:27.076Z,1017.32
2017-10-28T02:55:37.092Z,1017.32
2017-10-28T02:56:46.797Z,1017.32
2017-10-28T02:57:57.208Z,1017.34
2017-10-28T02:59:06.906Z,1017.29
2017-10-28T03:00:16.923Z,1017.3
2017-10-28T03:01:26.606Z,1017.42
2017-10-28T03:02:36.661Z,1017.33
2017-10-28T03:03:46.044Z,1017.28
2017-10-28T03:04:55.723Z,1017.35
2017-10-28T03:06:05.070Z,1017.25
2017-10-28T03:07:15.425Z,1017.22
2017-10-28T03:08:25.106Z,1017.13
2017-10-28T03:09:35.462Z,1017.12
2017-10-28T03:10:45.143Z,1017.11
2017-10-28T03:11:54.824Z,1017.02
2017-10-28T03:13:04.605Z,1017.07
2017-10-28T03:14:14.765Z,1017.01
2017-10-28T03:15:25.118Z,1016.85
2017-10-28T03:16:34.453Z,1016.89
2017-10-28T03:17:44.802Z,1016.88
2017-10-28T03:18:55.209Z,1016.85
2017-10-28T03:20:05.221Z,1016.83
2017-10-28T03:21:14.574Z,1016.78
2017-10-28T03:22:24.929Z,1016.75
2017-10-28T03:23:34.942Z,1016.79
2017-10-28T03:24:44.282Z,1016.78
2017-10-28T03:25:53.963Z,1016.84
2017-10-28T03:27:03.638Z,1016.8
2017-10-28T03:28:13.316Z,1016.83
2017-10-28T03:29:22.993Z,1016.75
2017-10-28T03:30:33.012Z,1016.76
2017-10-28T03:31:42.357Z,1016.75
2017-10-28T03:32:52.035Z,1016.79
2017-10-28T03:34:01.713Z,1016.71
2017-10-28T03:35:11.399Z,1016.63
2017-10-28T03:36:21.425Z,1016.58
2017-10-28T03:37:31.091Z,1016.57
2017-10-28T03:38:41.107Z,1016.57
2017-10-28T03:39:50.446Z,1016.42
2017-10-28T03:41:00.126Z,1016.39
2017-10-28T03:42:09.469Z,1016.29
2017-10-28T03:43:19.482Z,1016.28
2017-10-28T03:44:29.503Z,1016.23
2017-10-28T03:45:39.185Z,1016.17
2017-10-28T03:46:49.197Z,1016.09
2017-10-28T03:47:59.209Z,1016.12
2017-10-28T03:49:09.230Z,1016.11
2017-10-28T03:50:18.909Z,1016.17
2017-10-28T03:51:28.934Z,1016.16
2017-10-28T03:52:39.287Z,1015.97
2017-10-28T03:53:49.296Z,1015.99
2017-10-28T03:54:58.980Z,1016.21
2017-10-28T03:56:08.652Z,1016.09
2017-10-28T03:57:18.326Z,1016.15
2017-10-28T03:58:28.344Z,1016.26
2017-10-28T03:59:38.690Z,1016.18
2017-10-28T04:00:48.369Z,1016.23
2017-10-28T04:01:58.723Z,1016.17
2017-10-28T04:03:09.100Z,1016.12
2017-10-28T04:04:19.115Z,1016.2
2017-10-28T04:05:29.126Z,1016.13
2017-10-28T04:06:38.803Z,1016.11
2017-10-28T04:07:48.481Z,1016.29
2017-10-28T04:08:58.490Z,1016.15
2017-10-28T04:10:08.839Z,1016.11
2017-10-28T04:11:18.185Z,1016.18
2017-10-28T04:12:27.854Z,1016.12
2017-10-28T04:13:37.533Z,1016.1
2017-10-28T04:14:47.877Z,1016.16
2017-10-28T04:15:57.886Z,1016.16
2017-10-28T04:17:07.899Z,1016.12
2017-10-28T04:18:16.905Z,1016.17
2017-10-28T04:19:27.257Z,1016.26
2017-10-28T04:20:37.277Z,1016.11
2017-10-28T04:21:47.298Z,1016.06
2017-10-28T04:22:57.307Z,1016.06
2017-10-28T04:24:06.988Z,1016.12
2017-10-28T04:25:17.021Z,1016.12
2017-10-28T04:26:26.340Z,1016.13
2017-10-28T04:27:36.024Z,1016.03
2017-10-28T04:28:46.372Z,1016.11
2017-10-28T04:29:56.045Z,1016.16
2017-10-28T04:31:05.763Z,1016.16
2017-10-28T04:32:15.440Z,1016.08
2017-10-28T04:33:25.790Z,1016.09
2017-10-28T04:34:35.806Z,1016.07
2017-10-28T04:35:46.159Z,1016.12
2017-10-28T04:36:56.177Z,1015.94
2017-10-28T04:38:06.191Z,1016
2017-10-28T04:39:15.868Z,1015.95
2017-10-28T04:40:25.540Z,1016.03
2017-10-28T04:41:35.552Z,1016.25
2017-10-28T04:42:45.902Z,1016.02
2017-10-28T04:43:55.581Z,1015.9
2017-10-28T04:45:05.600Z,1015.86
2017-10-28T04:46:15.669Z,1016.03
2017-10-28T04:47:25.683Z,1015.79
2017-10-28T04:48:35.691Z,1015.76
2017-10-28T04:49:45.712Z,1015.76
2017-10-28T04:50:55.718Z,1015.75
2017-10-28T04:52:05.738Z,1015.64
2017-10-28T04:53:15.137Z,1015.59
2017-10-28T04:54:24.487Z,1015.58
2017-10-28T04:55:34.827Z,1015.55
2017-10-28T04:56:45.175Z,1015.55
2017-10-28T04:57:55.525Z,1015.55
2017-10-28T04:59:04.864Z,1015.31
2017-10-28T05:00:14.871Z,1015.22
2017-10-28T05:01:25.224Z,1015.24
2017-10-28T05:02:34.898Z,1015.12
2017-10-28T05:03:44.241Z,1015.21
2017-10-28T05:04:53.581Z,1015.23
2017-10-28T05:06:03.589Z,1015.34
2017-10-28T05:07:12.959Z,1015.12
2017-10-28T05:08:22.985Z,1015.07
2017-10-28T05:09:33.039Z,1015.01
2017-10-28T05:10:42.378Z,1015.2
2017-10-28T05:11:52.389Z,1015.15
2017-10-28T05:13:02.400Z,1015.1
2017-10-28T05:14:12.412Z,1015.12
2017-10-28T05:15:22.112Z,1015.22
2017-10-28T05:16:32.131Z,1015.25
2017-10-28T05:17:41.881Z,1015.26
2017-10-28T05:18:52.338Z,1015.29
2017-10-28T05:20:02.378Z,1015.2
2017-10-28T05:21:11.720Z,1015.21
2017-10-28T05:22:21.402Z,1014.98
2017-10-28T05:23:31.765Z,1014.91
2017-10-28T05:24:42.152Z,1014.87
2017-10-28T05:25:51.833Z,1014.86
2017-10-28T05:27:01.177Z,1014.9
2017-10-28T05:28:11.527Z,1014.81
2017-10-28T05:29:20.873Z,1014.86
2017-10-28T05:30:30.212Z,1014.77
2017-10-28T05:31:39.211Z,1014.75
2017-10-28T05:32:48.223Z,1014.75
2017-10-28T05:33:58.295Z,1014.83
2017-10-28T05:35:08.404Z,1014.93
2017-10-28T05:36:18.422Z,1014.96
2017-10-28T05:37:27.764Z,1014.98
2017-10-28T05:38:37.780Z,1015.06
2017-10-28T05:39:47.801Z,1014.98
2017-10-28T05:40:57.526Z,1014.94
2017-10-28T05:42:07.538Z,1014.9
2017-10-28T05:43:16.879Z,1014.8
2017-10-28T05:44:26.889Z,1014.81
2017-10-28T05:45:36.854Z,1014.76
2017-10-28T05:46:46.527Z,1014.65
2017-10-28T05:47:56.211Z,1014.69
2017-10-28T05:49:06.224Z,1014.64
2017-10-28T05:50:15.897Z,1014.62
2017-10-28T05:51:25.926Z,1014.51
2017-10-28T05:52:36.271Z,1014.48
2017-10-28T05:53:45.948Z,1014.43
2017-10-28T05:54:55.626Z,1014.49
2017-10-28T05:56:05.979Z,1014.33
2017-10-28T05:57:15.673Z,1014.4
2017-10-28T05:58:26.018Z,1014.47
2017-10-28T05:59:36.027Z,1014.33
2017-10-28T06:00:46.058Z,1014.44
2017-10-28T06:01:56.206Z,1014.3
2017-10-28T06:03:05.881Z,1014.33
2017-10-28T06:04:15.220Z,1014.24
2017-10-28T06:05:25.231Z,1014.2
2017-10-28T06:06:34.574Z,1014.21
2017-10-28T06:07:44.258Z,1014.15
2017-10-28T06:08:53.603Z,1014.12
2017-10-28T06:10:03.281Z,1014.13
2017-10-28T06:11:13.630Z,1014.13
2017-10-28T06:12:23.653Z,1014.18
2017-10-28T06:13:33.024Z,1014.3
2017-10-28T06:14:43.035Z,1014.22
2017-10-28T06:15:53.060Z,1014.27
2017-10-28T06:17:02.741Z,1014.26
2017-10-28T06:18:12.753Z,1014.29
2017-10-28T06:19:22.796Z,1014.31
2017-10-28T06:20:31.806Z,1014.06
2017-10-28T06:21:41.146Z,1014.13
2017-10-28T06:22:50.487Z,1014.09
2017-10-28T06:24:00.163Z,1014.09
2017-10-28T06:25:10.522Z,1014.11
2017-10-28T06:26:20.204Z,1014.37
2017-10-28T06:27:29.883Z,1014.28
2017-10-28T06:28:39.564Z,1014.3
2017-10-28T06:29:49.248Z,1014.32
2017-10-28T06:30:59.264Z,1014.24
2017-10-28T06:32:08.606Z,1014.3
2017-10-28T06:33:18.284Z,1014.34
2017-10-28T06:34:27.625Z,1014.24
2017-10-28T06:35:37.651Z,1014.29
2017-10-28T06:36:47.664Z,1014.33
2017-10-28T06:37:57.339Z,1014.38
2017-10-28T06:39:07.026Z,1014.41
2017-10-28T06:40:16.371Z,1014.39
2017-10-28T06:41:26.393Z,1014.49
2017-10-28T06:42:35.066Z,1014.4
2017-10-28T06:43:44.767Z,1014.33
2017-10-28T06:44:54.443Z,1014.39
2017-10-28T06:46:04.456Z,1014.31
2017-10-28T06:47:14.130Z,1014.37
2017-10-28T06:48:24.149Z,1014.49
2017-10-28T06:49:34.513Z,1014.5
2017-10-28T06:50:44.876Z,1014.42
2017-10-28T06:51:54.563Z,1014.53
2017-10-28T06:53:04.582Z,1014.51
2017-10-28T06:54:13.954Z,1014.3
2017-10-28T06:55:23.297Z,1014.26
2017-10-28T06:56:32.999Z,1014.45
2017-10-28T06:57:43.030Z,1014.23
2017-10-28T06:58:52.377Z,1014.26
2017-10-28T07:00:01.384Z,1014.26
2017-10-28T07:01:11.395Z,1014.18
2017-10-28T07:02:21.769Z,1014.05
2017-10-28T07:03:31.787Z,1014.07
2017-10-28T07:04:41.465Z,1014.08
2017-10-28T07:05:51.160Z,1014.15
2017-10-28T07:07:00.506Z,1014.11
2017-10-28T07:08:10.854Z,1014.07
2017-10-28T07:09:20.533Z,1014.15
2017-10-28T07:10:30.547Z,1014.23
2017-10-28T07:11:40.558Z,1014.15
2017-10-28T07:12:50.569Z,1014.14
2017-10-28T07:13:59.974Z,1014.16
2017-10-28T07:15:09.336Z,1014.43
2017-10-28T07:16:19.010Z,1014.24
2017-10-28T07:17:28.688Z,1014.43
2017-10-28T07:18:38.701Z,1014.21
2017-10-28T07:19:48.710Z,1014.3
2017-10-28T07:20:58.732Z,1014.28
2017-10-28T07:22:08.406Z,1014.33
2017-10-28T07:23:18.082Z,1014.26
2017-10-28T07:24:27.773Z,1014.19
2017-10-28T07:25:37.809Z,1014.23
2017-10-28T07:26:47.496Z,1014.27
2017-10-28T07:27:57.221Z,1014.31
2017-10-28T07:29:07.242Z,1014.47
2017-10-28T07:30:17.264Z,1014.33
2017-10-28T07:31:26.941Z,1014.28
2017-10-28T07:32:37.288Z,1014.31
2017-10-28T07:33:46.963Z,1014.27
2017-10-28T07:34:56.652Z,1014.15
2017-10-28T07:36:06.676Z,1014.09
2017-10-28T07:37:16.356Z,1014.17
2017-10-28T07:38:26.377Z,1014.15
2017-10-28T07:39:35.718Z,1014
2017-10-28T07:40:45.731Z,1014.06
2017-10-28T07:41:55.781Z,1013.89
2017-10-28T07:43:05.513Z,1013.82
2017-10-28T07:44:15.195Z,1013.62
2017-10-28T07:45:25.542Z,1013.74
2017-10-28T07:46:35.894Z,1013.6
2017-10-28T07:47:45.906Z,1013.59
2017-10-28T07:48:55.577Z,1013.39
2017-10-28T07:50:05.600Z,1013.41
2017-10-28T07:51:15.612Z,1013.48
2017-10-28T07:52:25.356Z,1013.61
2017-10-28T07:53:35.037Z,1013.69
2017-10-28T07:54:45.053Z,1013.65
2017-10-28T07:55:54.727Z,1013.63
2017-10-28T07:57:04.749Z,1013.69
2017-10-28T07:58:14.767Z,1013.86
2017-10-28T07:59:24.786Z,1013.8
2017-10-28T08:00:33.458Z,1014.12
2017-10-28T08:01:43.160Z,1013.74
2017-10-28T08:02:52.858Z,1013.95
2017-10-28T08:04:03.284Z,1014.04
2017-10-28T08:05:13.321Z,1013.94
2017-10-28T08:06:23.334Z,1014.09
2017-10-28T08:07:33.028Z,1014.13
2017-10-28T08:08:43.066Z,1014.2
2017-10-28T08:09:52.742Z,1014.21
2017-10-28T08:11:02.428Z,1014.4
2017-10-28T08:12:12.121Z,1014.29
2017-10-28T08:13:22.136Z,1014.2
2017-10-28T08:14:32.162Z,1014.26
2017-10-28T08:15:41.839Z,1014.25
2017-10-28T08:16:51.511Z,1014.17
2017-10-28T08:18:01.191Z,1014.19
2017-10-28T08:19:10.533Z,1014.13
2017-10-28T08:20:19.875Z,1014.37
2017-10-28T08:21:30.024Z,1014.06
2017-10-28T08:22:39.860Z,1014.1
2017-10-28T08:23:49.869Z,1014.16
2017-10-28T08:24:59.791Z,1014.32
2017-10-28T08:26:10.004Z,1014.3
2017-10-28T08:27:19.375Z,1014.38
2017-10-28T08:28:29.251Z,1014.23
2017-10-28T08:29:39.111Z,1014.33
2017-10-28T08:30:48.500Z,1014.44
2017-10-28T08:31:58.700Z,1014.24
2017-10-28T08:33:09.241Z,1014.09
2017-10-28T08:34:19.293Z,1014.1
2017-10-28T08:35:29.514Z,1014.09
2017-10-28T08:36:40.086Z,1013.98
2017-10-28T08:37:49.484Z,1014
2017-10-28T08:39:00.061Z,1014.11
2017-10-28T08:40:09.874Z,1013.92
2017-10-28T08:41:19.534Z,1013.78
2017-10-28T08:42:29.564Z,1013.99
2017-10-28T08:43:39.250Z,1013.92
2017-10-28T08:44:48.272Z,1013.86
2017-10-28T08:45:58.066Z,1013.7
2017-10-28T08:47:07.842Z,1013.78
2017-10-28T08:48:17.313Z,1013.71
2017-10-28T08:49:27.379Z,1013.84
2017-10-28T08:50:37.101Z,1013.7
2017-10-28T08:51:47.200Z,1013.69
2017-10-28T08:52:57.266Z,1013.73
2017-10-28T08:54:07.861Z,1013.8
2017-10-28T08:55:17.877Z,1013.72
2017-10-28T08:56:27.557Z,1013.68
2017-10-28T08:57:37.237Z,1013.84
2017-10-28T08:58:47.248Z,1013.72
2017-10-28T08:59:56.591Z,1013.7
2017-10-28T09:01:06.603Z,1013.67
2017-10-28T09:02:16.622Z,1013.63
2017-10-28T09:03:26.985Z,1013.65
2017-10-28T09:04:36.996Z,1013.67
2017-10-28T09:05:46.001Z,1013.62
2017-10-28T09:06:56.015Z,1013.61
2017-10-28T09:08:06.035Z,1013.56
2017-10-28T09:09:16.051Z,1013.49
2017-10-28T09:10:26.421Z,1013.53
2017-10-28T09:11:36.452Z,1013.53
2017-10-28T09:12:46.127Z,1013.48
2017-10-28T09:13:56.493Z,1013.38
2017-10-28T09:15:06.856Z,1013.31
2017-10-28T09:16:16.878Z,1013.33
2017-10-28T09:17:26.943Z,1013.29
2017-10-28T09:18:37.366Z,1013.3
2017-10-28T09:19:47.814Z,1013.29
2017-10-28T09:20:58.197Z,1013.41
2017-10-28T09:22:07.908Z,1013.26
2017-10-28T09:23:18.273Z,1013.16
2017-10-28T09:24:28.290Z,1013.24
2017-10-28T09:25:37.643Z,1013.23
2017-10-28T09:26:47.383Z,1013.17
2017-10-28T09:27:57.068Z,1013.21
2017-10-28T09:29:07.457Z,1013.15
2017-10-28T09:30:17.210Z,1013.16
2017-10-28T09:31:27.426Z,1013.2
2017-10-28T09:32:37.667Z,1013.11
2017-10-28T09:33:47.977Z,1013.31
2017-10-28T09:34:57.414Z,1013.18
2017-10-28T09:36:07.228Z,1013.28
2017-10-28T09:37:17.390Z,1013.13
2017-10-28T09:38:27.405Z,1013.06
2017-10-28T09:39:37.116Z,1012.92
2017-10-28T09:40:46.890Z,1012.92
2017-10-28T09:41:56.574Z,1012.99
2017-10-28T09:43:06.923Z,1012.93
2017-10-28T09:44:16.940Z,1012.94
2017-10-28T09:45:26.721Z,1012.93
2017-10-28T09:46:35.728Z,1012.81
2017-10-28T09:47:45.408Z,1012.73
2017-10-28T09:48:55.090Z,1012.75
2017-10-28T09:50:05.109Z,1012.71
2017-10-28T09:51:14.791Z,1012.71
2017-10-28T09:52:24.828Z,1012.72
2017-10-28T09:53:35.182Z,1012.71
2017-10-28T09:54:45.208Z,1012.89
2017-10-28T09:55:55.558Z,1013.32
2017-10-28T09:57:05.579Z,1012.91
2017-10-28T09:58:15.928Z,1012.9
2017-10-28T09:59:25.971Z,1012.78
2017-10-28T10:00:35.982Z,1012.86
2017-10-28T10:01:46.019Z,1012.91
2017-10-28T10:02:56.047Z,1012.87
2017-10-28T10:04:06.400Z,1012.88
2017-10-28T10:05:16.093Z,1012.75
2017-10-28T10:06:25.780Z,1012.88
2017-10-28T10:07:35.458Z,1012.93
2017-10-28T10:08:44.802Z,1012.99
2017-10-28T10:09:54.821Z,1013.04
2017-10-28T10:11:04.849Z,1013.05
2017-10-28T10:12:15.203Z,1012.96
2017-10-28T10:13:25.216Z,1013.01
2017-10-28T10:14:35.233Z,1012.94
2017-10-28T10:15:44.910Z,1012.83
2017-10-28T10:16:55.295Z,1012.8
2017-10-28T10:18:05.312Z,1012.95
2017-10-28T10:19:15.071Z,1012.96
2017-10-28T10:20:25.092Z,1013.07
2017-10-28T10:21:34.768Z,1013.1
2017-10-28T10:22:44.788Z,1013.02
2017-10-28T10:23:55.141Z,1013.12
2017-10-28T10:25:05.197Z,1012.94
2017-10-28T10:26:14.546Z,1012.99
2017-10-28T10:27:24.592Z,1012.87
2017-10-28T10:28:34.283Z,1012.84
2017-10-28T10:29:43.641Z,1012.89
2017-10-28T10:30:52.988Z,1012.71
2017-10-28T10:32:03.368Z,1012.78
2017-10-28T10:33:13.422Z,1012.73
2017-10-28T10:34:23.803Z,1012.86
2017-10-28T10:35:34.159Z,1012.74
2017-10-28T10:36:44.178Z,1012.64
2017-10-28T10:37:53.862Z,1012.23
2017-10-28T10:39:03.536Z,1012.46
2017-10-28T10:40:12.892Z,1012.53
2017-10-28T10:41:23.243Z,1012.52
2017-10-28T10:42:32.596Z,1012.5
2017-10-28T10:43:42.281Z,1012.48
2017-10-28T10:44:51.635Z,1012.5
2017-10-28T10:46:01.588Z,1012.5
2017-10-28T10:47:11.263Z,1012.33
2017-10-28T10:48:21.289Z,1012.46
2017-10-28T10:49:31.649Z,1012.4
2017-10-28T10:50:41.353Z,1012.26
2017-10-28T10:51:51.389Z,1012.3
2017-10-28T10:53:01.744Z,1012.21
2017-10-28T10:54:11.461Z,1012.14
2017-10-28T10:55:21.488Z,1011.97
2017-10-28T10:56:31.194Z,1011.83
2017-10-28T10:57:40.518Z,1011.89
2017-10-28T10:58:50.589Z,1011.86
2017-10-28T11:00:00.670Z,1011.89
2017-10-28T11:01:10.705Z,1012.02
2017-10-28T11:02:21.154Z,1011.94
2017-10-28T11:03:31.171Z,1011.89
2017-10-28T11:04:41.178Z,1012.12
2017-10-28T11:05:51.525Z,1011.85
2017-10-28T11:07:00.979Z,1011.95
2017-10-28T11:08:10.665Z,1011.84
2017-10-28T11:09:20.455Z,1011.8
2017-10-28T11:10:29.132Z,1011.74
2017-10-28T11:11:38.815Z,1011.75
2017-10-28T11:12:48.497Z,1011.72
2017-10-28T11:13:58.176Z,1011.83
2017-10-28T11:15:08.526Z,1011.87
2017-10-28T11:16:18.212Z,1011.78
2017-10-28T11:17:28.250Z,1011.74
2017-10-28T11:18:37.948Z,1011.82
2017-10-28T11:19:48.030Z,1011.91
2017-10-28T11:20:57.394Z,1011.84
2017-10-28T11:22:07.087Z,1011.88
2017-10-28T11:23:17.453Z,1011.84
2017-10-28T11:24:26.797Z,1011.8
2017-10-28T11:25:37.154Z,1011.86
2017-10-28T11:26:46.838Z,1011.94
2017-10-28T11:27:56.852Z,1011.98
2017-10-28T11:29:06.534Z,1011.77
2017-10-28T11:30:16.213Z,1011.76
2017-10-28T11:31:26.568Z,1011.83
2017-10-28T11:32:36.578Z,1011.78
2017-10-28T11:33:46.259Z,1011.79
2017-10-28T11:34:55.948Z,1011.71
2017-10-28T11:36:05.652Z,1011.63
2017-10-28T11:37:16.134Z,1011.62
2017-10-28T11:38:25.152Z,1011.42
2017-10-28T11:39:34.521Z,1011.66
2017-10-28T11:40:43.877Z,1011.43
2017-10-28T11:41:53.891Z,1011.39
2017-10-28T11:43:03.927Z,1011.37
2017-10-28T11:44:13.277Z,1011.44
2017-10-28T11:45:22.624Z,1011.48
2017-10-28T11:46:32.645Z,1011.51
2017-10-28T11:47:42.679Z,1011.47
2017-10-28T11:48:52.012Z,1011.42
2017-10-28T11:50:01.720Z,1011.3
2017-10-28T11:51:11.075Z,1011.2
2017-10-28T11:52:20.419Z,1011.24
2017-10-28T11:53:30.440Z,1011.33
2017-10-28T11:54:39.448Z,1011.16
2017-10-28T11:55:49.462Z,1011.18
2017-10-28T11:56:59.479Z,1011.18
2017-10-28T11:58:09.233Z,1011.21
2017-10-28T11:59:19.249Z,1011.17
2017-10-28T12:00:28.933Z,1011.32
2017-10-28T12:01:38.950Z,1011.17
2017-10-28T12:02:48.638Z,1011.18
2017-10-28T12:03:58.374Z,1011.1
2017-10-28T12:05:08.579Z,1011.15
2017-10-28T12:06:18.970Z,1011.73
2017-10-28T12:07:29.002Z,1011.05
2017-10-28T12:08:39.380Z,1011.24
2017-10-28T12:09:49.063Z,1011.16
2017-10-28T12:10:59.085Z,1011.12
2017-10-28T12:12:09.123Z,1011.12
2017-10-28T12:13:19.134Z,1010.99
2017-10-28T12:14:28.829Z,1011.09
2017-10-28T12:15:38.554Z,1011.06
2017-10-28T12:16:47.905Z,1010.86
2017-10-28T12:17:57.932Z,1010.77
2017-10-28T12:19:07.948Z,1010.78
2017-10-28T12:20:17.972Z,1010.85
2017-10-28T12:21:27.987Z,1010.81
2017-10-28T12:22:37.672Z,1010.9
2017-10-28T12:23:47.700Z,1010.85
2017-10-28T12:24:57.389Z,1010.94
2017-10-28T12:26:07.077Z,1010.94
2017-10-28T12:27:17.107Z,1010.85
2017-10-28T12:28:26.785Z,1010.76
2017-10-28T12:29:36.128Z,1010.72
2017-10-28T12:30:46.165Z,1010.74
2017-10-28T12:31:55.855Z,1010.61
2017-10-28T12:33:05.554Z,1010.73
2017-10-28T12:34:15.605Z,1010.39
2017-10-28T12:35:25.617Z,1010.56
2017-10-28T12:36:35.632Z,1010.35
2017-10-28T12:37:44.977Z,1010.46
2017-10-28T12:38:54.657Z,1010.28
2017-10-28T12:40:04.803Z,1010.6
2017-10-28T12:41:15.184Z,1010.44
2017-10-28T12:42:25.279Z,1010.28
2017-10-28T12:43:34.650Z,1010.51
2017-10-28T12:44:44.474Z,1010.38
2017-10-28T12:45:54.162Z,1010.42
2017-10-28T12:47:03.518Z,1010.42
2017-10-28T12:48:13.198Z,1010.46
2017-10-28T12:49:23.560Z,1010.51
2017-10-28T12:50:32.307Z,1010.3
2017-10-28T12:51:42.473Z,1010.32
2017-10-28T12:52:51.924Z,1010.29
2017-10-28T12:54:02.288Z,1010.44
2017-10-28T12:55:12.018Z,1010.21
2017-10-28T12:56:22.112Z,1010.15
2017-10-28T12:57:32.171Z,1010.13
2017-10-28T12:58:41.947Z,1010.12
2017-10-28T12:59:51.653Z,1010.21
2017-10-28T13:01:01.034Z,1010.07
2017-10-28T13:02:11.565Z,1010.03
2017-10-28T13:03:21.840Z,1009.91
2017-10-28T13:04:31.632Z,1009.85
2017-10-28T13:05:41.415Z,1010.03
2017-10-28T13:06:50.460Z,1009.91
2017-10-28T13:08:00.584Z,1009.78
2017-10-28T13:09:10.535Z,1009.78
2017-10-28T13:10:20.559Z,1009.71
2017-10-28T13:11:30.354Z,1009.76
2017-10-28T13:12:40.565Z,1009.75
2017-10-28T13:13:50.597Z,1009.68
2017-10-28T13:15:00.328Z,1009.71
2017-10-28T13:16:10.801Z,1009.62
2017-10-28T13:17:20.280Z,1009.61
2017-10-28T13:18:29.745Z,1009.61
2017-10-28T13:19:39.147Z,1009.76
2017-10-28T13:20:49.283Z,1009.66
2017-10-28T13:21:59.080Z,1009.68
2017-10-28T13:23:09.270Z,1009.55
2017-10-28T13:24:18.985Z,1009.52
2017-10-28T13:25:28.705Z,1009.48
2017-10-28T13:26:38.543Z,1009.49
2017-10-28T13:27:48.675Z,1009.47
2017-10-28T13:28:58.135Z,1009.41
2017-10-28T13:30:08.297Z,1009.48
2017-10-28T13:31:18.053Z,1009.57
2017-10-28T13:32:28.413Z,1009.35
2017-10-28T13:33:38.236Z,1009.42
2017-10-28T13:34:48.285Z,1009.29
2017-10-28T13:35:58.647Z,1009.39
2017-10-28T13:37:08.657Z,1009.28
2017-10-28T13:38:18.673Z,1009.36
2017-10-28T13:39:28.690Z,1009.42
2017-10-28T13:40:38.741Z,1009.34
2017-10-28T13:41:48.811Z,1009.35
2017-10-28T13:42:58.870Z,1009.24
2017-10-28T13:44:09.287Z,1009.23
2017-10-28T13:45:19.045Z,1009.37
2017-10-28T13:46:29.561Z,1009.38
2017-10-28T13:47:39.035Z,1009.27
2017-10-28T13:48:48.466Z,1009.33
2017-10-28T13:49:58.550Z,1009.27
2017-10-28T13:51:08.616Z,1009.36
2017-10-28T13:52:18.435Z,1009.2
2017-10-28T13:53:27.834Z,1009.4
2017-10-28T13:54:37.521Z,1009.18
2017-10-28T13:55:47.273Z,1009.14
2017-10-28T13:56:57.013Z,1009.21
2017-10-28T13:58:06.784Z,1009.12
2017-10-28T13:59:16.625Z,1009.08
2017-10-28T14:00:26.125Z,1008.97
2017-10-28T14:01:36.591Z,1009.07
2017-10-28T14:02:46.714Z,1009.11
2017-10-28T14:03:56.489Z,1009.09
2017-10-28T14:05:06.937Z,1009.13
2017-10-28T14:06:17.020Z,1009.07
2017-10-28T14:07:27.122Z,1009.17
2017-10-28T14:08:36.900Z,1009.03
2017-10-28T14:09:47.355Z,1008.97
2017-10-28T14:10:57.116Z,1008.97